createdAt,value
2023-01-17T00:00:07.323Z,38.07
2023-01-17T00:05:29.413Z,37.10
2023-01-17T00:10:32.318Z,38.30
2023-01-17T00:15:35.363Z,37.69
2023-01-17T00:20:57.256Z,37.60
2023-01-17T00:26:05.979Z,37.22
2023-01-17T00:31:10.745Z,36.82
2023-01-17T00:36:14.119Z,36.62
2023-01-17T00:41:16.794Z,36.18
2023-01-17T00:46:38.877Z,36.36
2023-01-17T00:52:00.004Z,36.47
2023-01-17T00:57:21.167Z,36.34
2023-01-17T01:02:42.902Z,35.30
2023-01-17T01:08:04.347Z,35.89
2023-01-17T01:13:25.788Z,36.87
2023-01-17T01:18:47.645Z,36.29
2023-01-17T01:24:09.072Z,35.85
2023-01-17T01:29:30.348Z,36.98
2023-01-17T01:34:33.265Z,35.33
2023-01-17T01:39:36.223Z,34.40
2023-01-17T01:44:59.209Z,36.10
2023-01-17T01:50:06.077Z,36.25
2023-01-17T01:55:18.809Z,36.42
2023-01-17T02:00:30.070Z,36.03
2023-01-17T02:05:34.490Z,35.96
2023-01-17T02:10:39.867Z,34.44
2023-01-17T02:15:48.629Z,34.39
2023-01-17T02:20:59.407Z,35.35
2023-01-17T02:26:40.143Z,34.36
2023-01-17T02:31:51.889Z,33.13
2023-01-17T02:37:11.996Z,34.59
2023-01-17T02:42:20.984Z,35.42
2023-01-17T02:47:29.518Z,34.62
2023-01-17T02:52:56.456Z,34.75
2023-01-17T02:58:13.472Z,34.22
2023-01-17T03:03:28.499Z,34.51
2023-01-17T03:08:31.886Z,36.55
2023-01-17T03:13:34.677Z,36.82
2023-01-17T03:18:37.501Z,37.07
2023-01-17T03:23:40.378Z,35.72
2023-01-17T03:28:43.469Z,35.54
2023-01-17T03:33:46.933Z,35.64
2023-01-17T03:38:49.735Z,35.65
2023-01-17T03:43:52.518Z,34.85
2023-01-17T03:48:55.817Z,35.75
2023-01-17T03:53:58.537Z,36.42
2023-01-17T03:59:01.336Z,38.40
2023-01-17T04:04:04.181Z,38.86
2023-01-17T04:09:07.023Z,38.69
2023-01-17T04:14:09.794Z,38.06
2023-01-17T04:19:13.987Z,37.65
2023-01-17T04:24:18.004Z,37.25
2023-01-17T04:29:21.401Z,37.70
2023-01-17T04:34:24.624Z,37.44
2023-01-17T04:39:27.740Z,37.79
2023-01-17T04:44:30.826Z,36.88
2023-01-17T04:49:33.762Z,37.79
2023-01-17T04:54:36.675Z,37.39
2023-01-17T04:59:39.284Z,38.22
2023-01-17T05:04:42.097Z,38.69
2023-01-17T05:09:44.852Z,38.42
2023-01-17T05:14:47.708Z,38.55
2023-01-17T05:19:52.034Z,39.28
2023-01-17T05:24:54.843Z,39.10
2023-01-17T05:29:58.297Z,40.19
2023-01-17T05:35:02.966Z,39.72
2023-01-17T05:40:10.311Z,40.38
2023-01-17T05:45:17.023Z,38.57
2023-01-17T05:50:56.515Z,39.46
2023-01-17T05:56:21.299Z,39.51
2023-01-17T06:01:42.303Z,40.71
2023-01-17T06:06:45.178Z,39.35
2023-01-17T06:11:48.026Z,40.19
2023-01-17T06:16:50.896Z,39.88
2023-01-17T06:22:00.911Z,38.63
2023-01-17T06:27:04.797Z,39.44
2023-01-17T06:32:17.766Z,37.99
2023-01-17T06:37:20.424Z,38.43
2023-01-17T06:42:23.513Z,39.13
2023-01-17T06:47:26.418Z,39.47
2023-01-17T06:52:29.495Z,39.15
2023-01-17T06:57:32.355Z,38.62
2023-01-17T07:02:35.315Z,39.46
2023-01-17T07:07:38.144Z,39.15
2023-01-17T07:12:41.324Z,38.67
2023-01-17T07:18:14.241Z,39.18
2023-01-17T07:23:40.597Z,37.30
2023-01-17T07:28:43.508Z,38.78
2023-01-17T07:33:46.507Z,37.14
2023-01-17T07:39:21.759Z,35.38
2023-01-17T07:44:25.305Z,35.58
2023-01-17T07:50:02.164Z,35.40
2023-01-17T07:55:06.122Z,35.69
2023-01-17T08:00:09.687Z,35.48
2023-01-17T08:05:16.157Z,33.43
2023-01-17T08:10:19.629Z,32.38
2023-01-17T08:15:23.974Z,33.37
2023-01-17T08:20:28.145Z,33.07
2023-01-17T08:25:33.570Z,32.63
2023-01-17T08:30:36.616Z,33.07
2023-01-17T08:35:39.375Z,31.71
2023-01-17T08:41:46.615Z,30.00
2023-01-17T08:46:50.129Z,29.04
2023-01-17T09:00:01.573Z,27.07
2023-01-17T09:05:08.485Z,27.64
2023-01-17T09:10:14.072Z,27.51
2023-01-17T09:15:20.510Z,28.24
2023-01-17T09:20:24.479Z,27.25
2023-01-17T09:25:27.774Z,26.63
2023-01-17T09:30:30.645Z,26.87
2023-01-17T09:35:38.689Z,24.48
2023-01-17T09:40:47.928Z,24.35
2023-01-17T09:45:51.118Z,24.81
2023-01-17T09:51:00.837Z,24.45
2023-01-17T09:56:14.538Z,24.07
2023-01-17T10:01:27.567Z,25.96
2023-01-17T10:06:54.287Z,26.11
2023-01-17T10:12:39.163Z,25.91
2023-01-17T10:18:03.421Z,27.37
2023-01-17T10:23:18.455Z,28.07
2023-01-17T10:28:25.599Z,28.87
2023-01-17T10:33:36.455Z,28.07
2023-01-17T10:38:42.203Z,28.69
2023-01-17T10:43:55.526Z,29.82
2023-01-17T10:48:58.846Z,29.25
2023-01-17T10:54:04.815Z,28.88
2023-01-17T10:59:33.820Z,29.23
2023-01-17T11:04:40.614Z,28.33
2023-01-17T11:09:50.028Z,29.28
2023-01-17T11:15:04.945Z,29.15
2023-01-17T11:20:35.646Z,29.36
2023-01-17T11:25:39.428Z,29.51
2023-01-17T11:30:56.499Z,29.90
2023-01-17T11:35:59.486Z,29.40
2023-01-17T11:41:21.900Z,29.38
2023-01-17T11:46:25.631Z,27.19
2023-01-17T11:51:39.523Z,27.97
2023-01-17T11:56:46.476Z,27.88
2023-01-17T12:02:06.437Z,27.10
2023-01-17T12:07:38.525Z,27.91
2023-01-17T12:13:05.778Z,27.81
2023-01-17T12:18:45.894Z,29.36
2023-01-17T12:24:01.015Z,29.52
2023-01-17T12:29:28.050Z,29.22
2023-01-17T12:34:39.174Z,29.89
2023-01-17T12:39:49.608Z,30.57
2023-01-17T12:45:38.804Z,30.43
2023-01-17T12:50:51.401Z,31.31
2023-01-17T12:56:23.618Z,30.78
2023-01-17T13:01:40.028Z,30.10
2023-01-17T13:07:05.885Z,31.08
2023-01-17T13:12:15.500Z,30.80
2023-01-17T13:17:47.242Z,30.67
2023-01-17T13:22:52.366Z,31.21
2023-01-17T13:28:07.204Z,31.60
2023-01-17T13:33:37.562Z,33.24
2023-01-17T13:39:00.828Z,32.37
2023-01-17T13:44:23.228Z,34.07
2023-01-17T13:49:43.495Z,34.28
2023-01-17T13:54:52.884Z,34.89
2023-01-17T13:59:57.908Z,34.49
2023-01-17T14:05:18.827Z,33.88
2023-01-17T14:10:36.166Z,34.09
2023-01-17T14:15:50.163Z,33.58
2023-01-17T14:21:08.059Z,35.10
2023-01-17T14:26:22.733Z,36.75
2023-01-17T14:31:26.871Z,37.09
2023-01-17T14:36:33.515Z,37.18
2023-01-17T14:41:36.468Z,37.52
2023-01-17T14:46:39.363Z,37.62
2023-01-17T14:51:42.443Z,38.76
2023-01-17T14:56:48.435Z,38.40
2023-01-17T15:02:07.734Z,38.39
2023-01-17T15:07:19.083Z,38.67
2023-01-17T15:12:22.023Z,39.06
2023-01-17T15:17:25.225Z,38.91
2023-01-17T15:22:30.032Z,40.13
2023-01-17T15:27:33.183Z,39.71
2023-01-17T15:32:38.168Z,40.95
2023-01-17T15:37:42.004Z,41.42
2023-01-17T15:43:05.409Z,40.73
2023-01-17T15:48:26.591Z,41.22
2023-01-17T15:53:37.953Z,41.71
2023-01-17T15:58:40.862Z,41.71
2023-01-17T16:03:55.526Z,42.05
2023-01-17T16:08:58.560Z,41.61
2023-01-17T16:14:01.743Z,41.31
2023-01-17T16:19:05.691Z,41.71
2023-01-17T16:24:11.346Z,41.45
2023-01-17T16:29:14.225Z,42.24
2023-01-17T16:34:17.029Z,41.92
2023-01-17T16:39:19.898Z,41.93
2023-01-17T16:44:22.956Z,42.86
2023-01-17T16:49:25.819Z,42.60
2023-01-17T16:54:28.690Z,42.20
2023-01-17T16:59:45.930Z,42.14
2023-01-17T17:04:52.816Z,43.53
2023-01-17T17:09:55.746Z,43.12
2023-01-17T17:14:58.476Z,42.73
2023-01-17T17:20:01.204Z,41.55
2023-01-17T17:25:08.132Z,42.67
2023-01-17T17:30:11.842Z,42.12
2023-01-17T17:35:14.978Z,43.64
2023-01-17T17:40:18.194Z,43.69
2023-01-17T17:45:21.210Z,43.49
2023-01-17T17:50:24.130Z,43.24
2023-01-17T17:55:27.326Z,42.90
2023-01-17T18:00:30.062Z,42.85
2023-01-17T18:05:33.012Z,43.54
2023-01-17T18:10:35.990Z,43.62
2023-01-17T18:15:38.714Z,43.62
2023-01-17T18:20:41.717Z,43.43
2023-01-17T18:25:44.887Z,43.48
2023-01-17T18:30:47.745Z,43.18
2023-01-17T18:35:54.959Z,43.51
2023-01-17T18:41:03.285Z,43.53
2023-01-17T18:46:07.311Z,43.92
2023-01-17T18:51:15.730Z,44.63
2023-01-17T18:56:20.774Z,44.29
2023-01-17T19:01:26.194Z,44.58
2023-01-17T19:06:34.743Z,43.85
2023-01-17T19:11:37.673Z,44.12
2023-01-17T19:16:41.886Z,44.28
2023-01-17T19:21:45.280Z,44.11
2023-01-17T19:26:53.162Z,43.83
2023-01-17T19:31:56.066Z,43.55
2023-01-17T19:36:59.166Z,44.45
2023-01-17T19:42:02.132Z,44.04
2023-01-17T19:47:05.012Z,43.50
2023-01-17T19:52:07.877Z,43.58
2023-01-17T19:57:10.751Z,43.94
2023-01-17T20:02:13.637Z,44.50
2023-01-17T20:07:16.734Z,44.76
2023-01-17T20:12:19.849Z,44.88
2023-01-17T20:17:22.756Z,44.23
2023-01-17T20:22:25.626Z,44.97
2023-01-17T20:27:28.794Z,44.34
2023-01-17T20:32:31.684Z,43.50
2023-01-17T20:37:34.501Z,42.63
2023-01-17T20:42:37.413Z,41.14
2023-01-17T20:47:41.644Z,40.94
2023-01-17T20:52:45.080Z,42.55
2023-01-17T20:57:48.108Z,43.05
2023-01-17T21:02:51.061Z,40.83
2023-01-17T21:07:54.210Z,40.49
2023-01-17T21:12:57.342Z,41.09
2023-01-17T21:18:00.539Z,43.99
2023-01-17T21:23:03.240Z,41.90
2023-01-17T21:28:06.584Z,42.05
2023-01-17T21:33:09.603Z,43.36
2023-01-17T21:38:14.130Z,43.67
2023-01-17T21:43:17.078Z,44.23
2023-01-17T21:48:20.128Z,50.02
2023-01-17T21:53:22.973Z,47.10
2023-01-17T21:58:43.850Z,49.25
2023-01-17T22:03:51.664Z,49.88
2023-01-17T22:08:55.157Z,48.55
2023-01-17T22:13:59.299Z,48.56
2023-01-17T22:19:02.258Z,50.03
2023-01-17T22:24:05.735Z,49.11
2023-01-17T22:29:11.384Z,48.84
2023-01-17T22:34:15.745Z,47.28
2023-01-17T22:39:18.630Z,49.60
2023-01-17T22:44:21.609Z,49.70
2023-01-17T22:49:24.858Z,48.10
2023-01-17T22:54:27.660Z,46.52
2023-01-17T22:59:30.554Z,44.82
2023-01-17T23:04:33.404Z,43.95
2023-01-17T23:09:36.298Z,47.76
2023-01-17T23:14:57.388Z,44.81
2023-01-17T23:20:00.149Z,45.20
2023-01-17T23:25:08.963Z,43.79
2023-01-17T23:30:14.590Z,42.48
2023-01-17T23:35:19.282Z,42.55
2023-01-17T23:40:22.349Z,43.61
2023-01-17T23:45:25.412Z,42.52
2023-01-17T23:50:28.411Z,45.38
2023-01-17T23:55:31.255Z,44.47
